Date,TemperatureHighF,TemperatureAvgF,TemperatureLowF,DewpointHighF,DewpointAvgF,DewpointLowF,HumidityHigh,HumidityAvg,HumidityLow,PressureMaxIn,PressureMinIn,WindSpeedMaxMPH,WindSpeedAvgMPH,GustSpeedMaxMPH,PrecipitationSumIn
2013-8-1,87.3,71.4,54.9,60.3,53.7,46.8,88,57,29,29.05,28.90,20,5,20,0.00
2013-8-2,81.5,70.7,56.3,60.4,54.9,47.9,98,61,33,29.05,28.87,16,5,16,0.00
2013-8-3,82.8,68.7,53.2,57.5,51.6,45.0,97,59,30,29.22,29.05,16,5,16,0.00
2013-8-4,82.4,66.1,50.5,58.4,53.4,48.2,99,67,37,29.29,29.10,17,6,17,0.00
2013-8-5,74.1,66.6,59.5,67.0,61.5,53.3,98,84,74,29.10,28.85,25,8,26,0.11
2013-8-6,89.1,73.1,61.5,69.5,62.3,55.1,99,72,34,28.88,28.73,47,6,47,0.38
2013-8-7,82.8,68.9,58.3,65.7,56.6,47.9,99,69,32,29.06,28.79,16,6,16,0.01
2013-8-8,88.9,69.3,51.1,59.2,54.0,45.0,99,64,26,29.09,29.02,12,3,12,0.00
2013-8-9,82.8,69.6,58.3,60.9,54.3,47.9,97,62,33,29.14,29.01,20,6,20,0.00
2013-8-10,86.0,70.2,58.8,57.5,53.8,48.8,84,59,31,29.21,29.13,8,3,8,0.00
2013-8-11,86.0,68.6,55.8,63.7,58.8,53.1,93,74,41,29.15,29.03,11,3,11,0.00
2013-8-12,82.4,70.4,57.0,68.0,58.4,51.6,99,69,36,29.11,29.00,20,5,20,0.13
2013-8-13,77.7,64.1,48.7,54.2,49.0,43.1,97,62,31,29.22,29.11,15,4,15,0.00
2013-8-14,82.8,65.9,50.0,54.8,49.2,41.9,91,60,26,29.25,29.13,15,4,15,0.00
2013-8-15,89.6,71.2,55.9,58.4,52.0,42.4,88,57,20,29.18,29.10,10,2,10,0.00
2013-8-16,92.1,73.5,55.8,59.1,55.6,32.1,89,57,26,29.35,29.16,9,2,9,0.00
2013-8-17,86.7,70.5,53.2,60.7,55.4,50.6,96,63,33,29.27,29.16,21,5,21,0.00
2013-8-18,82.9,71.7,54.7,61.6,57.2,51.0,94,63,37,29.22,29.08,24,7,24,0.00
2013-8-19,89.6,74.1,63.9,67.8,62.8,57.4,83,69,45,29.09,28.98,20,8,20,0.00
2013-8-20,88.3,77.9,68.7,73.0,68.1,63.3,88,73,53,29.00,28.93,28,10,28,0.00
2013-8-21,96.3,78.0,68.2,74.4,69.9,63.5,99,78,47,29.05,28.90,31,5,31,2.31
2013-8-22,93.4,75.8,63.9,66.3,57.4,47.7,99,58,22,29.17,29.03,10,3,10,0.01
2013-8-23,89.1,71.6,54.5,68.2,59.8,50.8,95,69,41,29.21,29.11,17,5,17,0.00
2013-8-24,85.6,74.6,63.9,72.3,65.9,55.5,98,75,58,29.22,29.05,24,7,24,0.19
2013-8-25,95.7,84.3,76.8,75.2,72.6,70.2,83,69,50,29.10,29.00,24,5,24,0.00
2013-8-26,104.7,84.9,77.0,78.3,74.1,71.1,90,72,40,29.09,28.90,20,5,20,0.00
2013-8-27,101.7,86.5,74.3,78.9,75.1,71.5,95,71,45,28.94,28.84,13,4,13,0.00
2013-8-28,95.0,79.6,69.4,73.6,71.0,68.6,99,78,46,29.07,28.94,14,3,14,0.00
2013-8-29,89.8,80.8,72.5,77.8,73.5,69.3,95,79,60,29.08,28.91,15,9,15,0.00
2013-8-30,90.5,80.3,67.1,75.7,68.6,61.8,94,70,41,28.95,28.84,17,6,17,0.00
2013-8-31,88.0,74.2,59.5,70.5,65.1,59.3,99,76,50,28.95,28.78,13,4,13,0.00